Time;durP1;ratioP1;P1;durP2;ratioP2;P2;SDS_P1;SDS_P2;PMS_P1;PMS_P2;Temp;Humidity;BMP_temperature;BMP_pressure;BME280_temperature;BME280_humidity;BME280_pressure;Samples;Min_cycle;Max_cycle;Signal;HPM_P1;HPM_P2
2022/11/10 00:02:12;;;;;;;;;;;9.20;99.90;;;;;;5056519;28;19962;-73
2022/11/10 00:04:38;;;;;;;;;;;9.20;99.90;;;;;;5056117;28;19991;-74
2022/11/10 00:07:04;;;;;;;;;;;9.10;99.90;;;;;;5056059;28;19919;-76
2022/11/10 00:09:29;;;;;;;;;;;9.10;99.90;;;;;;5056298;28;19913;-76
2022/11/10 00:11:55;;;;;;;;;;;9.00;99.90;;;;;;5056197;28;19909;-74
2022/11/10 00:17:04;;;;;;;;;;;9.00;99.90;;;;;;5055162;28;19978;-76
2022/11/10 00:19:30;;;;;;;;;;;8.90;99.90;;;;;;5055889;28;20368;-76
2022/11/10 00:21:56;;;;;;;;;;;8.90;99.90;;;;;;5056030;28;19909;-74
2022/11/10 00:24:22;;;;;;;;;;;8.80;99.90;;;;;;5055847;28;19909;-76
2022/11/10 00:26:48;;;;;;;;;;;8.90;99.90;;;;;;5055685;28;19962;-75
2022/11/10 00:29:13;;;;;;;;;;;8.90;99.90;;;;;;5055311;28;20014;-76
2022/11/10 00:31:39;;;;;;;;;;;8.80;99.90;;;;;;5055698;28;19939;-73
2022/11/10 00:34:05;;;;;;;;;;;8.80;99.90;;;;;;5055620;28;19915;-74
2022/11/10 00:36:31;;;;;;;;;;;8.80;99.90;;;;;;5055879;28;19909;-77
2022/11/10 00:38:56;;;;;;;;;;;8.80;99.90;;;;;;5055703;28;19912;-74
2022/11/10 00:41:22;;;;;;;;;;;8.90;99.90;;;;;;5055587;28;19908;-74
2022/11/10 00:43:48;;;;;;;;;;;8.90;99.90;;;;;;5037693;28;19941;-78
2022/11/10 00:46:14;;;;;;;;;;;8.80;99.90;;;;;;5055634;28;19913;-75
2022/11/10 00:48:39;;;;;;;;;;;8.80;99.90;;;;;;5055427;28;20003;-76
2022/11/10 00:51:05;;;;;;;;;;;8.70;99.90;;;;;;5055457;28;20023;-74
2022/11/10 00:53:31;;;;;;;;;;;8.70;99.90;;;;;;5055257;28;19913;-76
2022/11/10 00:55:56;;;;;;;;;;;8.70;99.90;;;;;;5055584;28;20361;-74
2022/11/10 00:58:22;;;;;;;;;;;8.70;99.90;;;;;;5055696;28;20047;-75
2022/11/10 01:00:47;;;;;;;;;;;8.70;99.90;;;;;;5055220;28;19909;-73
2022/11/10 01:03:14;;;;;;;;;;;8.70;99.90;;;;;;5055174;28;19978;-76
2022/11/10 01:05:39;;;;;;;;;;;8.50;99.90;;;;;;5055052;28;20031;-76
2022/11/10 01:08:05;;;;;;;;;;;8.50;99.90;;;;;;5055342;28;19952;-75
2022/11/10 01:10:31;;;;;;;;;;;8.30;99.90;;;;;;5055020;28;19912;-76
2022/11/10 01:12:56;;;;;;;;;;;8.30;99.90;;;;;;5054996;28;20352;-74
2022/11/10 01:15:22;;;;;;;;;;;8.40;99.90;;;;;;5054971;28;19915;-78
2022/11/10 01:17:47;;;;;;;;;;;8.40;99.90;;;;;;5036815;28;20321;-75
2022/11/10 01:20:13;;;;;;;;;;;8.50;99.90;;;;;;5055439;28;19909;-77
2022/11/10 01:22:39;;;;;;;;;;;8.30;99.90;;;;;;5054778;28;19935;-77
2022/11/10 01:25:06;;;;;;;;;;;8.30;99.90;;;;;;5054562;28;19909;-77
2022/11/10 01:27:31;;;;;;;;;;;8.20;99.90;;;;;;5054479;28;19970;-77
2022/11/10 01:29:57;;;;;;;;;;;8.10;99.90;;;;;;5054184;28;19916;-76
2022/11/10 01:32:22;;;;;;;;;;;8.20;99.90;;;;;;5054564;28;20402;-75
2022/11/10 01:34:48;;;;;;;;;;;8.30;99.90;;;;;;5054489;28;19908;-74
2022/11/10 01:37:13;;;;;;;;;;;8.40;99.90;;;;;;5054707;28;19955;-73
2022/11/10 01:39:39;;;;;;;;;;;8.40;99.90;;;;;;5054758;28;19912;-75
2022/11/10 01:42:05;;;;;;;;;;;8.50;99.90;;;;;;5054536;28;19941;-77
2022/11/10 01:44:30;;;;;;;;;;;8.40;99.90;;;;;;5054518;28;20353;-75
2022/11/10 01:46:56;;;;;;;;;;;8.50;99.90;;;;;;5054297;28;19920;-74
2022/11/10 01:49:23;;;;;;;;;;;8.50;99.90;;;;;;5054359;28;19909;-76
2022/11/10 01:51:55;;;;;;;;;;;8.50;99.90;;;;;;5054543;28;19919;-74
2022/11/10 01:54:25;;;;;;;;;;;8.50;99.90;;;;;;5054187;28;20261;-74
2022/11/10 01:56:52;;;;;;;;;;;8.40;99.90;;;;;;5054211;28;20351;-76
2022/11/10 01:59:21;;;;;;;;;;;8.40;99.90;;;;;;5054012;28;19908;-76
2022/11/10 02:01:47;;;;;;;;;;;8.30;99.90;;;;;;5054253;28;19944;-76
2022/11/10 02:04:14;;;;;;;;;;;8.20;99.90;;;;;;5053902;28;19908;-75
2022/11/10 02:06:41;;;;;;;;;;;8.20;99.90;;;;;;5053948;28;19924;-75
2022/11/10 02:09:07;;;;;;;;;;;8.30;99.90;;;;;;5054457;28;19908;-75
2022/11/10 02:11:33;;;;;;;;;;;8.20;99.90;;;;;;5054044;28;19986;-76
2022/11/10 02:13:59;;;;;;;;;;;8.10;99.90;;;;;;5053828;28;20369;-77
2022/11/10 02:16:25;;;;;;;;;;;8.00;99.90;;;;;;5053964;28;19915;-76
2022/11/10 02:18:51;;;;;;;;;;;8.10;99.90;;;;;;5053881;28;19908;-74
2022/11/10 02:21:17;;;;;;;;;;;8.10;99.90;;;;;;5053695;28;19909;-75
2022/11/10 02:23:45;;;;;;;;;;;8.20;99.90;;;;;;5054070;28;20392;-76
2022/11/10 02:26:12;;;;;;;;;;;8.10;99.90;;;;;;5053721;28;19956;-73
2022/11/10 02:28:37;;;;;;;;;;;7.90;99.90;;;;;;5053487;28;19928;-77
2022/11/10 02:31:04;;;;;;;;;;;7.90;99.90;;;;;;5035735;28;19908;-77
2022/11/10 02:33:29;;;;;;;;;;;7.80;99.90;;;;;;5053588;28;19962;-74
2022/11/10 02:35:55;;;;;;;;;;;7.70;99.90;;;;;;5053984;28;19909;-76
2022/11/10 02:38:20;;;;;;;;;;;7.60;99.90;;;;;;5035784;28;20377;-74
2022/11/10 02:40:47;;;;;;;;;;;7.60;99.90;;;;;;5057628;28;19909;-74
2022/11/10 02:43:15;;;;;;;;;;;7.70;99.90;;;;;;5060347;28;20341;-78
2022/11/10 02:45:43;;;;;;;;;;;7.90;99.90;;;;;;5060223;28;20380;-74
2022/11/10 02:48:09;;;;;;;;;;;7.90;99.90;;;;;;5060319;28;19913;-77
2022/11/10 02:50:35;;;;;;;;;;;7.90;99.90;;;;;;5059889;28;19909;-77
2022/11/10 02:53:00;;;;;;;;;;;7.90;99.90;;;;;;5060209;28;20330;-75
2022/11/10 02:55:26;;;;;;;;;;;7.90;99.90;;;;;;5060253;28;20450;-74
2022/11/10 02:57:52;;;;;;;;;;;7.90;99.90;;;;;;5060185;28;19909;-75
2022/11/10 03:00:17;;;;;;;;;;;7.90;99.90;;;;;;5060164;28;19909;-74
2022/11/10 03:02:43;;;;;;;;;;;7.70;99.90;;;;;;5060163;28;19909;-76
2022/11/10 03:05:09;;;;;;;;;;;7.70;99.90;;;;;;5060062;28;19913;-74
2022/11/10 03:07:34;;;;;;;;;;;7.80;99.90;;;;;;5042163;28;19915;-74
2022/11/10 03:10:00;;;;;;;;;;;7.80;99.90;;;;;;5060248;28;19916;-75
2022/11/10 03:12:26;;;;;;;;;;;7.60;99.90;;;;;;5060413;28;19999;-75
2022/11/10 03:14:51;;;;;;;;;;;7.50;99.90;;;;;;5060067;28;19908;-74
2022/11/10 03:17:17;;;;;;;;;;;7.50;99.90;;;;;;5060169;28;20015;-74
2022/11/10 03:19:42;;;;;;;;;;;7.20;99.90;;;;;;5060076;28;20440;-74
2022/11/10 03:22:08;;;;;;;;;;;7.20;99.90;;;;;;5060023;28;19909;-74
2022/11/10 03:24:33;;;;;;;;;;;7.30;99.90;;;;;;5060259;28;19944;-77
2022/11/10 03:26:59;;;;;;;;;;;7.50;99.90;;;;;;5059890;28;19917;-74
2022/11/10 03:29:25;;;;;;;;;;;7.20;99.90;;;;;;5059404;28;19921;-74
2022/11/10 03:31:50;;;;;;;;;;;7.20;99.90;;;;;;5059914;28;19909;-76
2022/11/10 03:34:16;;;;;;;;;;;7.10;99.90;;;;;;5060268;28;20258;-73
2022/11/10 03:36:41;;;;;;;;;;;7.20;99.90;;;;;;5059973;28;19908;-77
2022/11/10 03:39:07;;;;;;;;;;;7.30;99.90;;;;;;5059848;28;19909;-73
2022/11/10 03:41:32;;;;;;;;;;;7.40;99.90;;;;;;5059991;28;19909;-75
2022/11/10 03:43:58;;;;;;;;;;;7.50;99.90;;;;;;5059846;28;19909;-74
2022/11/10 03:46:23;;;;;;;;;;;7.60;99.90;;;;;;5060058;28;19960;-75
2022/11/10 03:48:49;;;;;;;;;;;7.70;99.90;;;;;;5059899;28;20346;-75
2022/11/10 03:51:14;;;;;;;;;;;7.60;99.90;;;;;;5040710;28;19909;-74
2022/11/10 03:53:40;;;;;;;;;;;7.70;99.90;;;;;;5056666;28;19909;-76
2022/11/10 03:56:06;;;;;;;;;;;7.70;99.90;;;;;;5056671;28;19909;-75
2022/11/10 03:58:31;;;;;;;;;;;7.80;99.90;;;;;;5056568;28;19909;-76
2022/11/10 04:00:57;;;;;;;;;;;7.80;99.90;;;;;;5056762;28;19959;-73
2022/11/10 04:03:23;;;;;;;;;;;7.80;99.90;;;;;;5056587;28;19948;-74
2022/11/10 04:15:40;;;;;;;;;;;8.00;99.90;;;;;;5056231;28;19970;-75
2022/11/10 04:16:48;;;;;;;;;;;8.10;99.90;;;;;;5056341;28;19959;-75
2022/11/10 04:19:13;;;;;;;;;;;8.10;99.90;;;;;;5056087;28;20373;-75
2022/11/10 04:21:39;;;;;;;;;;;8.10;99.90;;;;;;5056123;28;19942;-75
2022/11/10 04:24:05;;;;;;;;;;;8.10;99.90;;;;;;5038135;28;19955;-76
2022/11/10 04:26:32;;;;;;;;;;;8.00;99.90;;;;;;5055957;28;19916;-76
2022/11/10 04:28:59;;;;;;;;;;;7.90;99.90;;;;;;5055745;28;20004;-78
2022/11/10 04:31:29;;;;;;;;;;;8.00;99.90;;;;;;5054891;28;20208;-76
2022/11/10 04:33:55;;;;;;;;;;;7.90;99.90;;;;;;5056049;28;19959;-75
2022/11/10 04:36:23;;;;;;;;;;;7.90;99.90;;;;;;5055802;28;19955;-76
2022/11/10 04:38:48;;;;;;;;;;;7.80;99.90;;;;;;5055750;28;19936;-76
2022/11/10 04:41:15;;;;;;;;;;;7.80;99.90;;;;;;5055764;28;19953;-75
2022/11/10 04:43:41;;;;;;;;;;;7.90;99.90;;;;;;5055895;28;19909;-73
2022/11/10 04:46:07;;;;;;;;;;;7.90;99.90;;;;;;5055594;28;19913;-74
2022/11/10 04:48:33;;;;;;;;;;;7.90;99.90;;;;;;5055573;28;19995;-76
2022/11/10 04:51:03;;;;;;;;;;;8.00;99.90;;;;;;5037617;28;19924;-75
2022/11/10 04:53:28;;;;;;;;;;;8.10;99.90;;;;;;5055317;28;20265;-75
2022/11/10 04:55:54;;;;;;;;;;;8.10;99.90;;;;;;5055751;28;19916;-77
2022/11/10 04:58:19;;;;;;;;;;;8.10;99.90;;;;;;5055412;28;19912;-75
2022/11/10 05:00:45;;;;;;;;;;;8.20;99.90;;;;;;5055289;28;19916;-75
2022/11/10 05:03:11;;;;;;;;;;;8.20;99.90;;;;;;5055147;28;19913;-75
2022/11/10 05:05:37;;;;;;;;;;;8.10;99.90;;;;;;5055387;28;19912;-76
2022/11/10 05:08:03;;;;;;;;;;;8.10;99.90;;;;;;5037345;28;20289;-73
2022/11/10 05:10:28;;;;;;;;;;;8.10;99.90;;;;;;5055242;28;19909;-75
2022/11/10 05:12:55;;;;;;;;;;;8.10;99.90;;;;;;5055468;28;19915;-75
2022/11/10 05:15:21;;;;;;;;;;;8.10;99.90;;;;;;5055057;28;20303;-75
2022/11/10 05:17:47;;;;;;;;;;;8.20;99.90;;;;;;5055024;28;19909;-74
2022/11/10 05:20:13;;;;;;;;;;;8.20;99.90;;;;;;5055045;28;19909;-76
2022/11/10 05:22:38;;;;;;;;;;;8.20;99.90;;;;;;5054718;28;19955;-76
2022/11/10 05:25:04;;;;;;;;;;;8.20;99.90;;;;;;5055130;28;19954;-75
2022/11/10 05:27:31;;;;;;;;;;;8.20;99.90;;;;;;5054897;28;19924;-73
2022/11/10 05:29:58;;;;;;;;;;;8.10;99.90;;;;;;5054526;28;20050;-74
2022/11/10 05:32:24;;;;;;;;;;;8.00;99.90;;;;;;5054599;28;19913;-75
2022/11/10 05:34:50;;;;;;;;;;;8.00;99.90;;;;;;5054635;28;19909;-78
2022/11/10 05:37:15;;;;;;;;;;;7.90;99.90;;;;;;5054766;28;19908;-75
2022/11/10 05:39:41;;;;;;;;;;;7.80;99.90;;;;;;5054790;28;19997;-76
2022/11/10 05:42:06;;;;;;;;;;;7.70;99.90;;;;;;5054488;28;20392;-74
2022/11/10 05:44:32;;;;;;;;;;;7.60;99.90;;;;;;5036561;28;20000;-75
2022/11/10 05:46:57;;;;;;;;;;;7.60;99.90;;;;;;5054442;28;19912;-77
2022/11/10 05:49:23;;;;;;;;;;;7.70;99.90;;;;;;5054447;28;19909;-77
2022/11/10 05:51:49;;;;;;;;;;;7.60;99.90;;;;;;5054473;28;19996;-76
2022/11/10 05:54:15;;;;;;;;;;;7.70;99.90;;;;;;5054318;28;19949;-74
2022/11/10 05:56:41;;;;;;;;;;;7.80;99.90;;;;;;5054253;28;19912;-74
2022/11/10 05:59:06;;;;;;;;;;;7.60;99.90;;;;;;5054231;28;19909;-76
2022/11/10 06:01:32;;;;;;;;;;;7.40;99.90;;;;;;5054294;28;20285;-76
2022/11/10 06:03:58;;;;;;;;;;;7.40;99.90;;;;;;5054229;28;19991;-77
2022/11/10 06:06:23;;;;;;;;;;;7.70;1.00;;;;;;5054295;28;19913;-74
2022/11/10 06:08:49;;;;;;;;;;;7.90;99.90;;;;;;5054238;28;19912;-76
2022/11/10 06:11:15;;;;;;;;;;;8.00;99.90;;;;;;5054091;28;20003;-76
2022/11/10 06:13:40;;;;;;;;;;;8.20;99.90;;;;;;5054354;28;20285;-74
2022/11/10 06:16:06;;;;;;;;;;;8.10;99.90;;;;;;5053539;28;19916;-76
2022/11/10 06:18:31;;;;;;;;;;;7.80;99.90;;;;;;5053866;28;20015;-77
2022/11/10 06:20:57;;;;;;;;;;;7.70;99.90;;;;;;5053951;28;19913;-75
2022/11/10 06:23:23;;;;;;;;;;;7.50;99.90;;;;;;5053957;28;20254;-77
2022/11/10 06:25:48;;;;;;;;;;;7.60;99.90;;;;;;5053936;28;19967;-75
2022/11/10 06:28:14;;;;;;;;;;;7.60;99.90;;;;;;5053717;28;20328;-76
2022/11/10 06:30:39;;;;;;;;;;;7.60;1.00;;;;;;5053693;28;19912;-75
2022/11/10 06:33:05;;;;;;;;;;;7.70;99.90;;;;;;5053740;28;20380;-76
2022/11/10 06:35:31;;;;;;;;;;;7.70;99.90;;;;;;5053778;28;19908;-75
2022/11/10 06:38:01;;;;;;;;;;;7.70;99.90;;;;;;5053866;28;19908;-75
2022/11/10 06:40:26;;;;;;;;;;;7.80;99.90;;;;;;5053780;28;20050;-75
2022/11/10 06:42:52;;;;;;;;;;;7.80;99.90;;;;;;5053596;28;19963;-75
2022/11/10 06:45:17;;;;;;;;;;;7.70;99.90;;;;;;5053899;28;20337;-77
2022/11/10 06:47:43;;;;;;;;;;;7.60;99.90;;;;;;5053846;28;19909;-75
2022/11/10 06:50:09;;;;;;;;;;;7.60;99.90;;;;;;5053539;28;19959;-75
2022/11/10 06:52:34;;;;;;;;;;;7.60;99.90;;;;;;5053477;28;19909;-76
2022/11/10 06:55:00;;;;;;;;;;;7.60;99.90;;;;;;5053477;28;19959;-73
2022/11/10 06:57:26;;;;;;;;;;;7.70;99.90;;;;;;5054109;28;19909;-74
2022/11/10 06:59:51;;;;;;;;;;;7.70;99.90;;;;;;5053515;28;19909;-73
2022/11/10 07:02:17;;;;;;;;;;;7.70;99.90;;;;;;5053642;28;19916;-74
2022/11/10 07:04:42;;;;;;;;;;;7.70;99.90;;;;;;5053574;28;20292;-75
2022/11/10 07:07:09;;;;;;;;;;;7.70;99.90;;;;;;5053503;28;19999;-76
2022/11/10 07:09:34;;;;;;;;;;;7.60;99.90;;;;;;5053820;28;19908;-74
2022/11/10 07:12:00;;;;;;;;;;;7.60;99.90;;;;;;5053408;28;19909;-77
2022/11/10 07:14:25;;;;;;;;;;;7.50;99.90;;;;;;5053611;28;19909;-74
2022/11/10 07:16:51;;;;;;;;;;;7.50;99.90;;;;;;5053445;28;19909;-74
2022/11/10 07:19:18;;;;;;;;;;;7.60;99.90;;;;;;5053356;28;19909;-75
2022/11/10 07:21:43;;;;;;;;;;;7.60;99.90;;;;;;5052891;28;19913;-76
2022/11/10 07:24:09;;;;;;;;;;;7.60;99.90;;;;;;5053592;28;20007;-79
2022/11/10 07:26:34;;;;;;;;;;;7.40;99.90;;;;;;5035529;28;20365;-77
2022/11/10 07:29:00;;;;;;;;;;;7.50;99.90;;;;;;5056920;28;19925;-75
2022/11/10 07:31:26;;;;;;;;;;;7.60;99.90;;;;;;5057028;28;19909;-75
2022/11/10 07:33:51;;;;;;;;;;;7.60;99.90;;;;;;5057035;28;19913;-74
2022/11/10 07:36:17;;;;;;;;;;;7.80;99.90;;;;;;5039095;28;20289;-75
2022/11/10 07:38:42;;;;;;;;;;;7.90;99.90;;;;;;5057067;28;19909;-78
2022/11/10 07:41:08;;;;;;;;;;;8.10;99.90;;;;;;5056787;28;19909;-77
2022/11/10 07:43:34;;;;;;;;;;;8.30;99.90;;;;;;5057247;28;19915;-77
2022/11/10 07:45:59;;;;;;;;;;;8.10;99.90;;;;;;5056836;28;19923;-75
2022/11/10 07:48:25;;;;;;;;;;;8.10;99.90;;;;;;5056781;28;20392;-75
2022/11/10 07:50:51;;;;;;;;;;;8.40;99.90;;;;;;5038624;28;20365;-74
2022/11/10 07:53:21;;;;;;;;;;;8.50;99.90;;;;;;5056660;28;19909;-77
2022/11/10 07:55:47;;;;;;;;;;;8.80;99.90;;;;;;5056914;28;19909;-76
2022/11/10 07:58:13;;;;;;;;;;;8.70;99.90;;;;;;5056582;28;19909;-75
2022/11/10 08:00:39;;;;;;;;;;;8.90;99.90;;;;;;5056456;28;19954;-76
2022/11/10 08:03:12;;;;;;;;;;;9.00;99.90;;;;;;5056414;28;20378;-77
2022/11/10 08:05:38;;;;;;;;;;;9.10;99.90;;;;;;5038425;28;20296;-75
2022/11/10 08:08:03;;;;;;;;;;;9.30;99.90;;;;;;5056617;28;19909;-76
2022/11/10 08:10:29;;;;;;;;;;;9.40;99.90;;;;;;5056473;28;19962;-76
2022/11/10 08:12:56;;;;;;;;;;;9.50;99.90;;;;;;5056320;28;19909;-76
2022/11/10 08:15:22;;;;;;;;;;;9.70;99.90;;;;;;5056245;28;19909;-76
2022/11/10 08:17:48;;;;;;;;;;;10.20;99.90;;;;;;5056247;28;19909;-76
2022/11/10 08:20:13;;;;;;;;;;;10.60;99.90;;;;;;5056223;28;19909;-74
2022/11/10 08:22:39;;;;;;;;;;;10.80;99.90;;;;;;5056034;28;19936;-73
2022/11/10 08:25:05;;;;;;;;;;;11.20;99.90;;;;;;5056111;28;20344;-76
2022/11/10 08:27:30;;;;;;;;;;;11.40;99.90;;;;;;5055896;28;19913;-77
2022/11/10 08:29:56;;;;;;;;;;;11.70;99.90;;;;;;5056672;28;19916;-73
2022/11/10 08:32:22;;;;;;;;;;;12.20;99.90;;;;;;5055960;28;19951;-76
2022/11/10 08:34:48;;;;;;;;;;;12.60;99.90;;;;;;5056025;28;19947;-75
2022/11/10 08:37:13;;;;;;;;;;;13.20;99.90;;;;;;5055921;28;20348;-77
2022/11/10 08:39:39;;;;;;;;;;;13.60;99.90;;;;;;5037636;28;19962;-77
2022/11/10 08:42:05;;;;;;;;;;;14.20;99.90;;;;;;5055868;28;19944;-76
2022/11/10 08:44:31;;;;;;;;;;;14.70;99.90;;;;;;5055800;28;19909;-74
2022/11/10 08:46:56;;;;;;;;;;;14.50;99.90;;;;;;5055633;28;19999;-75
2022/11/10 08:49:22;;;;;;;;;;;14.20;99.90;;;;;;5055687;28;19909;-76
2022/11/10 08:51:47;;;;;;;;;;;13.60;99.90;;;;;;5055566;28;19908;-77
2022/11/10 08:54:13;;;;;;;;;;;13.30;99.90;;;;;;5055627;28;20289;-76
2022/11/10 08:56:39;;;;;;;;;;;12.80;99.90;;;;;;5055497;28;19915;-74
2022/11/10 08:59:04;;;;;;;;;;;12.70;99.90;;;;;;5055445;28;19909;-74
2022/11/10 09:01:30;;;;;;;;;;;12.20;99.90;;;;;;5055620;28;19909;-74
2022/11/10 09:03:56;;;;;;;;;;;12.10;99.90;;;;;;5055628;28;19912;-74
2022/11/10 09:06:21;;;;;;;;;;;12.20;99.90;;;;;;5055405;28;19912;-76
2022/11/10 09:08:47;;;;;;;;;;;12.10;99.90;;;;;;5055304;28;20284;-74
2022/11/10 09:11:12;;;;;;;;;;;12.00;99.90;;;;;;5055252;28;19915;-75
2022/11/10 09:13:38;;;;;;;;;;;12.00;99.90;;;;;;5055144;28;20378;-76
2022/11/10 09:16:04;;;;;;;;;;;12.00;99.90;;;;;;5055258;28;19908;-75
2022/11/10 09:18:30;;;;;;;;;;;12.00;1.00;;;;;;5055351;28;19913;-76
2022/11/10 09:20:56;;;;;;;;;;;12.20;1.00;;;;;;5054873;28;19909;-75
2022/11/10 09:23:23;;;;;;;;;;;12.40;1.00;;;;;;5055028;28;19909;-75
2022/11/10 09:25:52;;;;;;;;;;;12.50;99.90;;;;;;5055120;28;19913;-76
2022/11/10 09:28:18;;;;;;;;;;;13.00;99.90;;;;;;5054903;28;20014;-74
2022/11/10 09:30:45;;;;;;;;;;;13.60;99.90;;;;;;5055042;28;19916;-75
2022/11/10 09:33:10;;;;;;;;;;;14.30;99.90;;;;;;5054878;28;19915;-76
2022/11/10 09:35:36;;;;;;;;;;;15.40;99.90;;;;;;5055149;28;19988;-77
2022/11/10 09:38:02;;;;;;;;;;;16.40;99.90;;;;;;5054760;28;19916;-74
2022/11/10 09:40:31;;;;;;;;;;;17.70;99.90;;;;;;5054707;28;20403;-75
2022/11/10 09:42:57;;;;;;;;;;;19.00;82.80;;;;;;5036856;28;20292;-75
2022/11/10 09:45:25;;;;;;;;;;;19.70;29.90;;;;;;5036728;28;19908;-77
2022/11/10 09:47:51;;;;;;;;;;;19.90;26.80;;;;;;5054652;28;19919;-78
2022/11/10 09:50:40;;;;;;;;;;;21.00;21.00;;;;;;5053636;28;19912;-76
2022/11/10 09:53:11;;;;;;;;;;;21.90;17.30;;;;;;5008183;28;19908;-78
2022/11/10 09:55:40;;;;;;;;;;;22.30;11.10;;;;;;5054343;28;19909;-77
2022/11/10 09:58:08;;;;;;;;;;;22.60;4.90;;;;;;5054415;28;19909;-77
2022/11/10 10:00:34;;;;;;;;;;;22.90;4.10;;;;;;5054691;28;20285;-75
2022/11/10 10:03:01;;;;;;;;;;;22.30;5.10;;;;;;5054339;28;19936;-76
2022/11/10 10:05:33;;;;;;;;;;;22.10;2.50;;;;;;5036224;28;19909;-76
2022/11/10 10:08:00;;;;;;;;;;;22.50;4.80;;;;;;5054202;28;19952;-78
2022/11/10 10:10:41;;;;;;;;;;;22.90;1.00;;;;;;5054206;28;19917;-76
2022/11/10 10:13:06;;;;;;;;;;;23.10;2.20;;;;;;5036318;28;19971;-76
2022/11/10 10:15:51;;;;;;;;;;;25.00;1.00;;;;;;5054083;28;19931;-76
2022/11/10 10:18:19;;;;;;;;;;;25.30;1.00;;;;;;5054151;28;20400;-78
2022/11/10 10:20:51;;;;;;;;;;;25.40;1.00;;;;;;5053931;28;20035;-78
2022/11/10 10:23:31;;;;;;;;;;;26.30;1.00;;;;;;5054069;28;19908;-78
2022/11/10 10:25:57;;;;;;;;;;;25.50;1.00;;;;;;5053989;28;19913;-77
2022/11/10 10:28:32;;;;;;;;;;;25.10;1.00;;;;;;5053763;28;19921;-80
2022/11/10 10:31:15;;;;;;;;;;;25.40;1.00;;;;;;5053610;28;19909;-78
2022/11/10 10:33:41;;;;;;;;;;;26.40;1.00;;;;;;5053928;28;19909;-74
2022/11/10 10:36:09;;;;;;;;;;;25.90;1.00;;;;;;5053964;28;20285;-78
2022/11/10 10:38:37;;;;;;;;;;;27.00;1.00;;;;;;5053862;28;19908;-75
2022/11/10 10:41:11;;;;;;;;;;;26.90;1.00;;;;;;5054126;28;19963;-76
2022/11/10 10:43:37;;;;;;;;;;;26.10;1.00;;;;;;5053846;28;19934;-76
2022/11/10 10:46:07;;;;;;;;;;;27.00;1.00;;;;;;5053712;28;19909;-75
2022/11/10 10:48:33;;;;;;;;;;;27.00;1.00;;;;;;5053703;28;20442;-76
2022/11/10 10:50:59;;;;;;;;;;;26.20;1.00;;;;;;5053626;28;19913;-76
2022/11/10 10:53:25;;;;;;;;;;;26.40;1.00;;;;;;5053634;28;19939;-76
2022/11/10 10:55:59;;;;;;;;;;;26.10;1.00;;;;;;5053628;28;19917;-77
2022/11/10 10:58:27;;;;;;;;;;;26.40;1.00;;;;;;5053678;28;20007;-76
2022/11/10 11:00:55;;;;;;;;;;;25.70;1.00;;;;;;5054099;28;19913;-76
2022/11/10 11:03:25;;;;;;;;;;;27.30;1.00;;;;;;5057692;28;20015;-75
2022/11/10 11:06:00;;;;;;;;;;;28.00;1.00;;;;;;5057576;28;19913;-75
2022/11/10 11:08:26;;;;;;;;;;;27.70;1.00;;;;;;5057493;28;19916;-76
2022/11/10 11:10:52;;;;;;;;;;;28.50;1.00;;;;;;5057696;28;19909;-76
2022/11/10 11:13:25;;;;;;;;;;;28.90;1.00;;;;;;5057438;28;19908;-77
2022/11/10 11:15:58;;;;;;;;;;;27.30;1.00;;;;;;5057496;28;19919;-77
2022/11/10 11:18:25;;;;;;;;;;;27.10;1.00;;;;;;5057418;28;20365;-74
2022/11/10 11:21:10;;;;;;;;;;;26.30;1.00;;;;;;5057292;28;19945;-77
2022/11/10 11:23:47;;;;;;;;;;;26.30;1.00;;;;;;5057419;28;19974;-75
2022/11/10 11:26:23;;;;;;;;;;;26.30;1.00;;;;;;5039442;28;19915;-75
2022/11/10 11:28:52;;;;;;;;;;;25.80;1.00;;;;;;5057029;28;19921;-74
2022/11/10 11:31:26;;;;;;;;;;;24.60;1.00;;;;;;5057280;28;20369;-75
2022/11/10 11:34:01;;;;;;;;;;;25.50;1.00;;;;;;5057079;28;19909;-76
2022/11/10 11:36:29;;;;;;;;;;;26.10;1.00;;;;;;5057450;28;19913;-74
2022/11/10 11:39:13;;;;;;;;;;;26.30;1.00;;;;;;5056989;28;19909;-75
2022/11/10 11:41:57;;;;;;;;;;;26.90;1.00;;;;;;5056954;28;19909;-76
2022/11/10 11:44:41;;;;;;;;;;;27.10;1.00;;;;;;5057388;28;19948;-74
2022/11/10 11:47:10;;;;;;;;;;;26.80;1.00;;;;;;5057080;28;19912;-76
2022/11/10 11:49:47;;;;;;;;;;;26.40;1.00;;;;;;5056931;28;20365;-76
2022/11/10 11:52:19;;;;;;;;;;;26.80;1.00;;;;;;5056837;28;19909;-76
2022/11/10 11:55:03;;;;;;;;;;;27.90;1.00;;;;;;5056715;28;19909;-76
2022/11/10 11:57:47;;;;;;;;;;;27.50;1.00;;;;;;5056730;28;19971;-75
2022/11/10 12:00:15;;;;;;;;;;;26.80;1.00;;;;;;5056595;28;19919;-77
2022/11/10 12:02:49;;;;;;;;;;;26.10;1.00;;;;;;5056551;28;19913;-73
2022/11/10 12:05:28;;;;;;;;;;;26.10;1.00;;;;;;5056850;28;19962;-74
2022/11/10 12:08:05;;;;;;;;;;;25.80;1.00;;;;;;5056537;28;19912;-77
2022/11/10 12:10:38;;;;;;;;;;;24.40;1.00;;;;;;5056509;28;19912;-74
2022/11/10 12:13:03;;;;;;;;;;;24.60;1.00;;;;;;5055275;28;20354;-76
2022/11/10 12:15:29;;;;;;;;;;;24.60;1.00;;;;;;5056430;28;19916;-74
2022/11/10 12:18:24;;;;;;;;;;;23.90;1.00;;;;;;5056360;28;19920;-73
2022/11/10 12:20:49;;;;;;;;;;;24.50;1.00;;;;;;5034702;28;19916;-72
2022/11/10 12:23:18;;;;;;;;;;;23.80;1.00;;;;;;5056197;28;19909;-75
2022/11/10 12:26:02;;;;;;;;;;;24.10;1.00;;;;;;5056240;28;19908;-74
2022/11/10 12:28:33;;;;;;;;;;;22.90;1.00;;;;;;5055885;28;20460;-74
2022/11/10 12:31:00;;;;;;;;;;;22.40;1.00;;;;;;5056018;28;19909;-73
2022/11/10 12:33:34;;;;;;;;;;;22.60;1.00;;;;;;5056078;28;19909;-75
2022/11/10 12:36:01;;;;;;;;;;;22.90;1.00;;;;;;5055891;28;19916;-73
2022/11/10 12:38:47;;;;;;;;;;;23.00;1.00;;;;;;5055906;28;19916;-75
2022/11/10 12:41:17;;;;;;;;;;;23.50;1.00;;;;;;5005628;28;20004;-74
2022/11/10 12:43:54;;;;;;;;;;;23.50;1.00;;;;;;5056082;28;20365;-73
2022/11/10 12:46:20;;;;;;;;;;;22.20;1.00;;;;;;5055908;28;19912;-74
2022/11/10 12:49:04;;;;;;;;;;;21.50;1.00;;;;;;5055674;28;20375;-75
2022/11/10 12:51:50;;;;;;;;;;;22.70;1.00;;;;;;5055663;28;19913;-75
2022/11/10 12:54:16;;;;;;;;;;;23.40;1.00;;;;;;5054508;28;19909;-72
2022/11/10 12:56:42;;;;;;;;;;;25.80;1.00;;;;;;5055524;28;19964;-73
2022/11/10 12:59:19;;;;;;;;;;;26.50;1.00;;;;;;5055800;28;19958;-74
2022/11/10 13:01:46;;;;;;;;;;;27.60;1.00;;;;;;5055663;28;20361;-73
2022/11/10 13:04:13;;;;;;;;;;;28.60;1.00;;;;;;5055433;28;19916;-74
2022/11/10 13:06:44;;;;;;;;;;;29.10;1.00;;;;;;5055307;28;20000;-74
2022/11/10 13:09:21;;;;;;;;;;;28.30;1.00;;;;;;5037027;28;19913;-76
2022/11/10 13:12:03;;;;;;;;;;;28.00;1.00;;;;;;5055221;28;19915;-76
2022/11/10 13:14:33;;;;;;;;;;;29.30;1.00;;;;;;5055609;28;19915;-74
2022/11/10 13:16:59;;;;;;;;;;;30.30;1.00;;;;;;5055088;28;19920;-75
2022/11/10 13:19:27;;;;;;;;;;;30.70;1.00;;;;;;5055115;28;19909;-74
2022/11/10 13:22:05;;;;;;;;;;;31.00;1.00;;;;;;5054968;28;20291;-77
2022/11/10 13:24:32;;;;;;;;;;;30.10;1.00;;;;;;5055355;28;19913;-75
2022/11/10 13:27:03;;;;;;;;;;;30.60;1.00;;;;;;5055056;28;19909;-76
2022/11/10 13:29:30;;;;;;;;;;;30.80;1.00;;;;;;5054589;28;20000;-77
2022/11/10 13:32:14;;;;;;;;;;;31.30;1.00;;;;;;5054930;28;19916;-73
2022/11/10 13:34:42;;;;;;;;;;;29.00;1.00;;;;;;5036890;28;19992;-77
2022/11/10 13:37:26;;;;;;;;;;;30.50;1.00;;;;;;5055061;28;19912;-74
2022/11/10 13:39:52;;;;;;;;;;;29.80;1.00;;;;;;5054609;28;20399;-77
2022/11/10 13:42:19;;;;;;;;;;;30.10;1.00;;;;;;5054960;28;19975;-73
2022/11/10 13:44:46;;;;;;;;;;;30.70;1.00;;;;;;5054711;28;19909;-76
2022/11/10 13:47:33;;;;;;;;;;;27.40;1.00;;;;;;5036798;28;19908;-73
2022/11/10 13:50:18;;;;;;;;;;;27.60;1.00;;;;;;5054617;28;19913;-73
2022/11/10 13:52:55;;;;;;;;;;;30.50;1.00;;;;;;5054653;28;20012;-76
2022/11/10 13:55:44;;;;;;;;;;;32.00;1.00;;;;;;5054475;28;19908;-75
2022/11/10 13:58:17;;;;;;;;;;;31.80;1.00;;;;;;5041111;28;19917;-76
2022/11/10 14:00:47;;;;;;;;;;;31.70;1.00;;;;;;5054354;28;20338;-74
2022/11/10 14:03:31;;;;;;;;;;;32.40;1.00;;;;;;5054595;28;19909;-77
2022/11/10 14:05:59;;;;;;;;;;;31.80;1.00;;;;;;5054359;28;20312;-76
2022/11/10 14:08:27;;;;;;;;;;;28.00;1.00;;;;;;5054418;28;19916;-75
2022/11/10 14:10:55;;;;;;;;;;;30.20;1.00;;;;;;5054617;28;19915;-75
2022/11/10 14:13:31;;;;;;;;;;;27.70;1.00;;;;;;5054122;28;19909;-74
2022/11/10 14:15:57;;;;;;;;;;;24.70;1.00;;;;;;5054153;28;19959;-75
2022/11/10 14:18:24;;;;;;;;;;;23.00;1.00;;;;;;5054182;28;19908;-74
2022/11/10 14:20:56;;;;;;;;;;;23.80;1.00;;;;;;5053976;28;20020;-75
2022/11/10 14:23:28;;;;;;;;;;;24.00;1.00;;;;;;5054050;28;19915;-73
2022/11/10 14:25:58;;;;;;;;;;;22.40;1.00;;;;;;5054022;28;20293;-73
2022/11/10 14:28:31;;;;;;;;;;;21.30;1.00;;;;;;5053685;28;19924;-72
2022/11/10 14:30:57;;;;;;;;;;;20.50;4.50;;;;;;5036076;28;20388;-76
2022/11/10 14:33:23;;;;;;;;;;;20.60;9.50;;;;;;5053978;28;19908;-74
2022/11/10 14:35:50;;;;;;;;;;;20.60;7.20;;;;;;5053480;28;20400;-76
2022/11/10 14:38:17;;;;;;;;;;;19.80;12.50;;;;;;5054045;28;19909;-76
2022/11/10 14:40:43;;;;;;;;;;;20.10;14.30;;;;;;5053846;28;19931;-78
2022/11/10 14:43:26;;;;;;;;;;;20.00;15.80;;;;;;5054021;28;20000;-76
2022/11/10 14:45:52;;;;;;;;;;;19.70;19.20;;;;;;5053870;28;19954;-75